Time;durP1;ratioP1;P1;durP2;ratioP2;P2;SDS_P1;SDS_P2;PMS_P1;PMS_P2;Temp;Humidity;BMP_temperature;BMP_pressure;BME280_temperature;BME280_humidity;BME280_pressure;Samples;Min_cycle;Max_cycle;Signal;HPM_P1;HPM_P2
2021/09/08 00:00:40;;;;;;;9.43;4.35;;;10.30;69.80;;;;;;6186941;23;19997;-89
2021/09/08 00:03:05;;;;;;;7.15;4.85;;;10.30;69.60;;;;;;6194203;23;20387;-89
2021/09/08 00:05:31;;;;;;;7.20;3.78;;;10.30;69.90;;;;;;6216863;23;20083;-90
2021/09/08 00:07:57;;;;;;;5.05;3.85;;;10.20;69.70;;;;;;6193769;23;20004;-91
2021/09/08 00:10:23;;;;;;;7.55;4.90;;;10.20;69.90;;;;;;6194063;23;20040;-90
2021/09/08 00:12:48;;;;;;;7.20;4.15;;;10.20;69.70;;;;;;6197164;23;20009;-89
2021/09/08 00:15:14;;;;;;;6.50;4.28;;;10.20;69.90;;;;;;6227652;23;20039;-90
2021/09/08 00:17:40;;;;;;;7.25;3.97;;;10.20;70.10;;;;;;6208021;23;20083;-89
2021/09/08 00:20:08;;;;;;;7.18;4.60;;;10.20;70.00;;;;;;6206453;23;19997;-90
2021/09/08 00:22:34;;;;;;;7.10;3.40;;;10.20;70.20;;;;;;6205775;23;20012;-89
2021/09/08 00:25:00;;;;;;;7.75;4.32;;;10.10;70.00;;;;;;6197596;23;20004;-90
2021/09/08 00:27:26;;;;;;;4.32;3.35;;;10.20;70.30;;;;;;6192656;23;20080;-89
2021/09/08 00:29:51;;;;;;;5.72;3.83;;;10.10;70.40;;;;;;6193865;23;20424;-90
2021/09/08 00:32:17;;;;;;;4.78;3.25;;;10.20;70.30;;;;;;6223629;23;20001;-90
2021/09/08 00:34:43;;;;;;;5.57;3.55;;;10.10;70.20;;;;;;6201074;23;20079;-90
2021/09/08 00:37:08;;;;;;;4.05;2.95;;;10.10;70.50;;;;;;6198784;23;20004;-90
2021/09/08 00:39:34;;;;;;;7.93;3.58;;;10.10;70.20;;;;;;6192869;23;20008;-89
2021/09/08 00:42:07;;;;;;;5.93;3.08;;;10.10;70.40;;;;;;6192022;23;20490;-88
2021/09/08 00:44:33;;;;;;;6.80;2.83;;;10.10;70.40;;;;;;6227638;23;19997;-88
2021/09/08 00:46:59;;;;;;;5.70;3.17;;;10.10;70.50;;;;;;6204648;23;20321;-89
2021/09/08 00:49:24;;;;;;;4.82;3.38;;;10.10;70.40;;;;;;6206319;23;20328;-89
2021/09/08 00:51:51;;;;;;;5.78;3.28;;;10.10;70.50;;;;;;6223295;23;20008;-90
2021/09/08 00:54:20;;;;;;;5.32;3.28;;;10.10;70.50;;;;;;6192093;23;20009;-90
2021/09/08 00:56:47;;;;;;;4.25;2.85;;;10.10;70.50;;;;;;6191706;23;20001;-90
2021/09/08 00:59:14;;;;;;;7.00;3.78;;;10.10;70.50;;;;;;6191786;23;20000;-90
2021/09/08 01:01:40;;;;;;;4.10;3.10;;;10.10;70.50;;;;;;6191809;23;20088;-90
2021/09/08 01:04:05;;;;;;;6.28;2.95;;;10.10;70.40;;;;;;6217997;23;20464;-90
2021/09/08 01:06:31;;;;;;;5.38;3.38;;;10.10;70.30;;;;;;6191674;23;20306;-89
2021/09/08 01:08:58;;;;;;;6.78;3.22;;;10.00;70.30;;;;;;6191769;23;19997;-90
2021/09/08 01:11:23;;;;;;;5.70;2.42;;;10.00;70.30;;;;;;6218275;23;20001;-90
2021/09/08 01:13:49;;;;;;;4.07;2.40;;;10.00;70.30;;;;;;6191788;23;20159;-90
2021/09/08 01:16:15;;;;;;;3.45;2.60;;;10.00;70.40;;;;;;6191568;23;20001;-90
2021/09/08 01:18:44;;;;;;;3.53;2.65;;;10.00;70.30;;;;;;6191584;23;20063;-89
2021/09/08 01:21:10;;;;;;;3.05;2.22;;;10.00;70.40;;;;;;6218182;23;20019;-90
2021/09/08 01:23:36;;;;;;;2.97;2.30;;;10.00;70.30;;;;;;6218186;23;20001;-90
2021/09/08 01:26:05;;;;;;;4.10;2.30;;;10.00;70.40;;;;;;6218210;23;20020;-90
2021/09/08 01:28:31;;;;;;;4.55;2.83;;;10.00;70.60;;;;;;6191081;23;20005;-90
2021/09/08 01:30:58;;;;;;;5.00;2.72;;;10.00;70.40;;;;;;6191316;23;20084;-90
2021/09/08 01:33:25;;;;;;;2.45;2.10;;;10.00;70.30;;;;;;6191391;23;20446;-90
2021/09/08 01:35:51;;;;;;;4.63;2.40;;;10.00;70.40;;;;;;6218045;23;20004;-90
2021/09/08 01:38:17;;;;;;;5.15;2.70;;;10.00;70.30;;;;;;6217931;23;20383;-90
2021/09/08 01:40:43;;;;;;;3.20;1.95;;;10.00;70.20;;;;;;6218104;23;20007;-90
2021/09/08 01:43:09;;;;;;;8.05;2.63;;;10.10;70.40;;;;;;6217994;23;20424;-90
2021/09/08 01:45:38;;;;;;;4.30;2.67;;;10.00;70.30;;;;;;6191504;23;20015;-90
2021/09/08 01:48:05;;;;;;;3.25;2.08;;;10.00;70.20;;;;;;6191326;23;20016;-90
2021/09/08 01:50:31;;;;;;;2.97;2.20;;;10.10;70.30;;;;;;6191574;23;20020;-90
2021/09/08 01:52:56;;;;;;;4.53;2.75;;;10.10;70.30;;;;;;6191256;23;20005;-89
2021/09/08 01:55:23;;;;;;;2.67;2.20;;;10.10;70.20;;;;;;6217844;23;20075;-89
2021/09/08 01:57:49;;;;;;;11.52;2.53;;;10.10;70.10;;;;;;6217504;23;19997;-89
2021/09/08 02:00:15;;;;;;;4.38;2.53;;;10.10;70.00;;;;;;6191260;23;20009;-90
2021/09/08 02:02:41;;;;;;;3.67;2.15;;;10.10;70.00;;;;;;6217254;23;20502;-90
2021/09/08 02:05:08;;;;;;;11.88;2.47;;;10.10;70.00;;;;;;6191296;23;20084;-90
2021/09/08 02:07:34;;;;;;;3.13;2.33;;;10.10;69.80;;;;;;6217315;23;20075;-90
2021/09/08 02:10:00;;;;;;;4.65;2.75;;;10.10;69.80;;;;;;6217780;23;20003;-90
2021/09/08 02:12:26;;;;;;;5.32;3.15;;;10.10;69.80;;;;;;6191313;23;20012;-90
2021/09/08 02:14:51;;;;;;;6.25;2.50;;;10.10;69.80;;;;;;6191232;23;20005;-90
2021/09/08 02:17:17;;;;;;;3.78;2.08;;;10.10;70.10;;;;;;6217753;23;20489;-90
2021/09/08 02:19:43;;;;;;;4.03;2.53;;;10.10;69.90;;;;;;6191303;23;20321;-89
2021/09/08 02:22:09;;;;;;;3.83;2.42;;;10.00;69.80;;;;;;6191151;23;20058;-90
2021/09/08 02:24:34;;;;;;;6.47;3.03;;;10.00;69.90;;;;;;6217658;23;19997;-90
2021/09/08 02:27:00;;;;;;;4.35;3.13;;;10.00;70.00;;;;;;6191046;23;20035;-90
2021/09/08 02:29:26;;;;;;;3.47;2.60;;;10.00;70.10;;;;;;6191038;23;20031;-90
2021/09/08 02:31:51;;;;;;;2.60;2.35;;;10.00;70.20;;;;;;6191072;23;20005;-90
2021/09/08 02:34:17;;;;;;;3.42;2.65;;;9.90;70.10;;;;;;6217679;23;20000;-90
2021/09/08 02:36:43;;;;;;;3.38;2.30;;;9.90;70.30;;;;;;6218059;23;20054;-90
2021/09/08 02:39:08;;;;;;;3.08;2.08;;;9.90;70.30;;;;;;6190653;23;20004;-90
2021/09/08 02:41:34;;;;;;;4.07;2.35;;;9.90;70.40;;;;;;6191030;23;20011;-90
2021/09/08 02:44:00;;;;;;;4.68;2.28;;;9.90;70.40;;;;;;6217934;23;20023;-90
2021/09/08 02:46:26;;;;;;;3.53;1.90;;;9.90;70.50;;;;;;6190992;23;20005;-90
2021/09/08 02:48:52;;;;;;;3.13;2.13;;;9.90;70.60;;;;;;6217545;23;20334;-90
2021/09/08 02:51:17;;;;;;;3.60;2.05;;;9.80;70.70;;;;;;6190713;23;20000;-90
2021/09/08 02:53:43;;;;;;;3.35;2.00;;;9.80;71.10;;;;;;6217349;23;19996;-89
2021/09/08 02:56:09;;;;;;;3.40;2.65;;;9.80;71.10;;;;;;6218775;23;20004;-90
2021/09/08 02:58:35;;;;;;;4.00;2.17;;;9.70;71.10;;;;;;6190953;23;20044;-90
2021/09/08 03:01:01;;;;;;;2.33;1.92;;;9.70;71.10;;;;;;6190852;23;20005;-89
2021/09/08 03:03:27;;;;;;;5.88;2.30;;;9.70;71.20;;;;;;6217478;23;20100;-88
2021/09/08 03:05:53;;;;;;;3.60;2.20;;;9.70;71.20;;;;;;6190548;23;20417;-88
2021/09/08 03:08:19;;;;;;;2.97;1.90;;;9.60;71.30;;;;;;6217223;23;20004;-90
2021/09/08 03:10:46;;;;;;;2.67;1.92;;;9.70;71.50;;;;;;6217008;23;20001;-90
2021/09/08 03:13:16;;;;;;;3.45;2.13;;;9.60;71.50;;;;;;6190869;23;20062;-90
2021/09/08 03:15:42;;;;;;;3.33;1.60;;;9.60;71.80;;;;;;6217103;23;20004;-90
2021/09/08 03:18:09;;;;;;;3.15;2.25;;;9.60;71.80;;;;;;6190259;23;20428;-90
2021/09/08 03:20:35;;;;;;;2.13;1.77;;;9.60;71.80;;;;;;6217015;23;20003;-90
2021/09/08 03:23:01;;;;;;;3.53;2.22;;;9.60;71.90;;;;;;6190600;23;20009;-90
2021/09/08 03:25:27;;;;;;;4.28;2.80;;;9.60;71.90;;;;;;6190359;23;20034;-90
2021/09/08 03:27:53;;;;;;;3.97;2.55;;;9.60;72.10;;;;;;6191918;23;20401;-90
2021/09/08 03:30:19;;;;;;;3.10;2.17;;;9.60;72.10;;;;;;6217052;23;19997;-90
2021/09/08 03:32:45;;;;;;;4.38;2.33;;;9.60;72.10;;;;;;6190371;23;20005;-90
2021/09/08 03:35:11;;;;;;;2.53;2.08;;;9.60;72.70;;;;;;6190449;23;20004;-90
2021/09/08 03:37:37;;;;;;;4.22;1.88;;;9.60;72.00;;;;;;6216856;23;20072;-90
2021/09/08 03:40:03;;;;;;;3.90;2.55;;;9.70;72.20;;;;;;6217000;23;20020;-90
2021/09/08 03:42:29;;;;;;;3.58;2.30;;;9.70;72.10;;;;;;6190293;23;20008;-90
2021/09/08 03:44:55;;;;;;;3.08;1.83;;;9.70;72.10;;;;;;6190226;23;20004;-90
2021/09/08 03:47:20;;;;;;;3.47;2.30;;;9.80;72.10;;;;;;6190414;23;20066;-90
2021/09/08 03:49:46;;;;;;;3.67;2.38;;;9.80;72.00;;;;;;6190139;23;20491;-90
2021/09/08 03:52:16;;;;;;;6.03;3.25;;;9.80;71.90;;;;;;6190177;23;20009;-90
2021/09/08 03:54:42;;;;;;;4.22;2.47;;;9.90;72.00;;;;;;6190624;23;20091;-90
2021/09/08 03:57:08;;;;;;;3.75;2.83;;;10.00;72.10;;;;;;6190495;23;20001;-90
2021/09/08 03:59:35;;;;;;;3.25;2.10;;;10.00;72.00;;;;;;6190499;23;20474;-90
2021/09/08 04:02:01;;;;;;;3.17;2.30;;;10.00;71.90;;;;;;6190205;23;20008;-89
2021/09/08 04:04:27;;;;;;;3.65;2.67;;;10.10;72.20;;;;;;6217638;23;20090;-90
2021/09/08 04:06:52;;;;;;;3.45;2.67;;;10.20;72.00;;;;;;6190384;23;20000;-90
2021/09/08 04:09:18;;;;;;;5.53;2.65;;;10.20;71.80;;;;;;6190411;23;20008;-88
2021/09/08 04:11:44;;;;;;;4.60;2.83;;;10.30;71.70;;;;;;6190726;23;20424;-89
2021/09/08 04:14:10;;;;;;;2.95;2.47;;;10.40;71.80;;;;;;6190198;23;20018;-89
2021/09/08 04:16:36;;;;;;;8.45;3.55;;;10.40;71.50;;;;;;6190142;23;20001;-90
2021/09/08 04:19:02;;;;;;;5.45;3.72;;;10.50;71.60;;;;;;6190622;23;20011;-90
2021/09/08 04:21:28;;;;;;;5.40;3.03;;;10.50;71.40;;;;;;6190212;23;20011;-91
2021/09/08 04:23:53;;;;;;;4.82;3.20;;;10.70;71.20;;;;;;6190815;23;20004;-91
2021/09/08 04:26:20;;;;;;;7.00;3.92;;;10.70;71.10;;;;;;6217186;23;20000;-90
2021/09/08 04:28:46;;;;;;;4.40;3.08;;;10.80;71.10;;;;;;6190198;23;20383;-91
2021/09/08 04:31:11;;;;;;;4.13;3.20;;;10.80;70.90;;;;;;6191040;23;20039;-91
2021/09/08 04:33:37;;;;;;;5.28;3.60;;;10.90;70.90;;;;;;6190038;23;20005;-91
2021/09/08 04:36:03;;;;;;;5.13;4.00;;;11.00;70.70;;;;;;6216906;23;20369;-90
2021/09/08 04:38:29;;;;;;;4.80;2.97;;;11.10;70.60;;;;;;6216546;23;19997;-91
2021/09/08 04:40:54;;;;;;;6.22;3.13;;;11.10;70.40;;;;;;6217193;23;20028;-91
2021/09/08 04:43:21;;;;;;;4.32;3.33;;;11.20;70.30;;;;;;6189694;23;20332;-90
2021/09/08 04:45:47;;;;;;;5.40;3.70;;;11.30;70.10;;;;;;6216622;23;20063;-91
2021/09/08 04:48:13;;;;;;;4.43;2.92;;;11.40;70.00;;;;;;6190312;23;20001;-91
2021/09/08 04:50:39;;;;;;;3.80;2.55;;;11.50;69.80;;;;;;6190171;23;20009;-91
2021/09/08 04:53:04;;;;;;;5.57;3.28;;;11.60;69.60;;;;;;6189618;23;20078;-91
2021/09/08 04:55:30;;;;;;;7.20;3.35;;;11.70;69.40;;;;;;6190703;23;20008;-91
2021/09/08 04:57:56;;;;;;;7.60;3.72;;;11.80;69.20;;;;;;6216950;23;20001;-91
2021/09/08 05:00:22;;;;;;;4.63;3.53;;;11.90;69.00;;;;;;6190872;23;20005;-91
2021/09/08 05:02:48;;;;;;;4.88;3.35;;;11.90;68.70;;;;;;6216554;23;20000;-91
2021/09/08 05:05:13;;;;;;;5.22;3.08;;;12.10;68.70;;;;;;6192033;23;20005;-91
2021/09/08 05:07:39;;;;;;;4.22;3.55;;;12.20;68.50;;;;;;6191517;23;20036;-91
2021/09/08 05:10:05;;;;;;;4.82;3.13;;;12.30;68.20;;;;;;6192272;23;20000;-90
2021/09/08 05:12:31;;;;;;;5.22;2.97;;;12.40;67.60;;;;;;6191747;23;20385;-91
2021/09/08 05:14:57;;;;;;;5.72;3.45;;;12.50;67.30;;;;;;6192005;23;20013;-91
2021/09/08 05:17:23;;;;;;;4.93;3.50;;;12.70;67.20;;;;;;6191776;23;20420;-90
2021/09/08 05:19:48;;;;;;;4.53;3.10;;;12.80;66.90;;;;;;6191092;23;20012;-90
2021/09/08 05:22:14;;;;;;;3.22;2.65;;;12.90;66.70;;;;;;6218302;23;20367;-91
2021/09/08 05:24:40;;;;;;;4.53;3.08;;;13.00;66.20;;;;;;6217999;23;19993;-91
2021/09/08 05:27:06;;;;;;;4.00;3.35;;;13.10;66.10;;;;;;6218870;23;19996;-91
2021/09/08 05:29:32;;;;;;;3.90;2.47;;;13.20;66.00;;;;;;6191462;23;20079;-90
2021/09/08 05:31:57;;;;;;;4.55;3.40;;;13.40;65.90;;;;;;6191555;23;20004;-90
2021/09/08 05:34:23;;;;;;;6.03;3.78;;;13.50;65.10;;;;;;6193282;23;20023;-91
2021/09/08 05:36:49;;;;;;;7.18;4.50;;;13.50;65.00;;;;;;6220533;23;19997;-91
2021/09/08 05:39:14;;;;;;;7.53;3.80;;;13.60;64.70;;;;;;6194178;23;20020;-91
2021/09/08 05:41:40;;;;;;;4.68;3.53;;;13.70;64.40;;;;;;6192701;23;20443;-91
2021/09/08 05:44:06;;;;;;;3.78;3.17;;;13.70;64.50;;;;;;6218001;23;19993;-91
2021/09/08 05:46:32;;;;;;;3.65;3.00;;;13.80;64.30;;;;;;6218135;23;20004;-91
2021/09/08 05:48:58;;;;;;;4.95;3.33;;;13.90;64.10;;;;;;6220248;23;20072;-91
2021/09/08 05:51:23;;;;;;;4.25;3.22;;;14.00;63.80;;;;;;6192233;23;20004;-90
2021/09/08 05:53:49;;;;;;;4.90;3.03;;;14.20;63.50;;;;;;6225480;23;20003;-91
2021/09/08 05:56:15;;;;;;;5.53;3.05;;;14.30;63.20;;;;;;6226317;23;20313;-91
2021/09/08 05:58:40;;;;;;;6.93;3.95;;;14.40;62.80;;;;;;6198060;23;20140;-91
2021/09/08 06:01:06;;;;;;;5.47;3.45;;;14.60;62.80;;;;;;6198510;23;20035;-91
2021/09/08 06:03:32;;;;;;;4.78;3.58;;;14.70;62.30;;;;;;6192431;23;20020;-92
2021/09/08 06:05:57;;;;;;;5.45;3.70;;;14.80;61.50;;;;;;6191328;23;20050;-91
2021/09/08 06:08:23;;;;;;;3.63;2.78;;;14.90;61.30;;;;;;6191054;23;20009;-91
2021/09/08 06:10:50;;;;;;;5.85;3.95;;;15.00;61.30;;;;;;6191129;23;20080;-91
2021/09/08 06:13:16;;;;;;;5.20;3.55;;;15.10;60.80;;;;;;6190528;23;20005;-91
2021/09/08 06:15:42;;;;;;;3.90;3.10;;;15.20;60.00;;;;;;6217798;23;20008;-91
2021/09/08 06:18:08;;;;;;;5.20;3.55;;;15.30;60.00;;;;;;6218052;23;19993;-91
2021/09/08 06:20:34;;;;;;;3.53;2.97;;;15.50;59.80;;;;;;6217755;23;20007;-91
2021/09/08 06:23:00;;;;;;;3.92;3.00;;;15.60;59.50;;;;;;6217953;23;20313;-90
2021/09/08 06:25:28;;;;;;;4.97;3.20;;;15.70;58.90;;;;;;6191760;23;20000;-89
2021/09/08 06:27:54;;;;;;;4.95;3.13;;;15.80;58.60;;;;;;6190746;23;20050;-90
2021/09/08 06:30:20;;;;;;;3.47;3.05;;;16.00;58.40;;;;;;6217822;23;20008;-91
2021/09/08 06:32:45;;;;;;;5.63;3.30;;;16.10;58.20;;;;;;6218148;23;20008;-91
2021/09/08 06:35:11;;;;;;;9.05;3.03;;;16.30;57.90;;;;;;6190757;23;20069;-91
2021/09/08 06:37:37;;;;;;;4.18;2.78;;;16.40;57.50;;;;;;6191101;23;20005;-91
2021/09/08 06:40:03;;;;;;;7.55;3.95;;;16.50;57.00;;;;;;6217336;23;20417;-90
2021/09/08 06:42:29;;;;;;;4.20;3.60;;;16.70;56.80;;;;;;6191084;23;20003;-91
2021/09/08 06:44:55;;;;;;;4.80;3.55;;;16.80;56.40;;;;;;6191179;23;20004;-90
2021/09/08 06:47:21;;;;;;;5.32;3.40;;;16.90;55.70;;;;;;6218027;23;20360;-91
2021/09/08 06:49:49;;;;;;;4.38;3.45;;;17.00;55.70;;;;;;6216655;23;20032;-90
2021/09/08 06:52:15;;;;;;;4.70;3.80;;;17.10;55.50;;;;;;6190533;23;20004;-90
2021/09/08 06:54:40;;;;;;;6.00;3.53;;;17.20;54.90;;;;;;6193881;23;20582;-91
2021/09/08 06:57:06;;;;;;;4.18;3.35;;;17.30;54.00;;;;;;6226764;23;20047;-90
2021/09/08 06:59:32;;;;;;;3.90;2.97;;;17.40;54.00;;;;;;6226480;23;20000;-90
2021/09/08 07:01:59;;;;;;;4.55;3.50;;;17.50;53.70;;;;;;6199275;23;20028;-88
2021/09/08 07:04:25;;;;;;;7.88;3.60;;;17.60;53.00;;;;;;6192116;23;20039;-91
2021/09/08 07:06:50;;;;;;;4.40;3.50;;;17.60;52.40;;;;;;6191181;23;20009;-89
2021/09/08 07:09:16;;;;;;;4.80;3.30;;;17.60;51.80;;;;;;6190768;23;20392;-89
2021/09/08 07:11:43;;;;;;;3.28;2.97;;;17.70;51.30;;;;;;6217411;23;20001;-89
2021/09/08 07:14:09;;;;;;;12.52;3.40;;;17.70;51.30;;;;;;6217261;23;19997;-89
2021/09/08 07:16:34;;;;;;;7.22;3.45;;;17.70;51.20;;;;;;6190350;23;20074;-90
2021/09/08 07:19:00;;;;;;;3.63;3.10;;;17.80;51.50;;;;;;6216841;23;20321;-92
2021/09/08 07:21:26;;;;;;;5.22;3.63;;;17.80;51.10;;;;;;6218275;23;20020;-90
2021/09/08 07:23:51;;;;;;;5.10;3.35;;;17.90;50.90;;;;;;6192901;23;20194;-93
2021/09/08 07:26:17;;;;;;;4.60;3.80;;;17.90;50.50;;;;;;6192758;23;20007;-90
2021/09/08 07:28:45;;;;;;;5.15;3.72;;;18.00;50.50;;;;;;6220166;23;20012;-92
2021/09/08 07:31:10;;;;;;;4.85;3.30;;;18.10;50.70;;;;;;6188214;23;20004;-91
2021/09/08 07:33:36;;;;;;;5.15;3.30;;;18.10;50.40;;;;;;6203999;23;20455;-96
2021/09/08 07:36:03;;;;;;;4.60;3.40;;;18.20;50.40;;;;;;6235033;23;20032;-93
2021/09/08 07:38:29;;;;;;;4.82;3.00;;;18.30;49.90;;;;;;6205499;23;20435;-93
2021/09/08 07:40:56;;;;;;;4.28;3.42;;;18.40;49.60;;;;;;6220700;23;20000;-95
2021/09/08 07:43:24;;;;;;;4.28;2.67;;;18.40;49.60;;;;;;6194315;23;20113;-91
2021/09/08 07:45:54;;;;;;;4.18;3.40;;;18.50;48.80;;;;;;6221185;23;20004;-94
2021/09/08 07:48:21;;;;;;;3.88;3.38;;;18.60;48.80;;;;;;6189840;23;20008;-91
2021/09/08 07:50:47;;;;;;;5.65;3.30;;;18.60;48.40;;;;;;6189513;23;20009;-90
2021/09/08 07:53:14;;;;;;;3.90;2.88;;;18.60;47.60;;;;;;6189202;23;20431;-91
2021/09/08 07:55:40;;;;;;;4.40;2.95;;;18.70;47.90;;;;;;6189766;23;20063;-93
2021/09/08 07:58:07;;;;;;;5.07;3.20;;;18.80;47.90;;;;;;6216645;23;20370;-93
2021/09/08 08:00:35;;;;;;;3.95;3.10;;;18.90;48.20;;;;;;6219564;23;20015;-92
2021/09/08 08:03:02;;;;;;;5.07;2.83;;;19.00;47.50;;;;;;6163813;23;20031;-91
2021/09/08 08:05:29;;;;;;;5.13;2.85;;;19.20;47.40;;;;;;6186419;23;19997;-90
2021/09/08 08:07:55;;;;;;;3.78;3.13;;;19.30;47.20;;;;;;6186213;23;20005;-91
2021/09/08 08:10:21;;;;;;;4.03;2.78;;;19.30;47.00;;;;;;6189132;23;20155;-93
2021/09/08 08:12:47;;;;;;;5.03;2.85;;;19.40;46.50;;;;;;6189314;23;20074;-92
2021/09/08 08:15:17;;;;;;;3.85;2.90;;;19.40;46.70;;;;;;6188290;23;20091;-92
2021/09/08 08:17:43;;;;;;;7.57;2.97;;;19.50;46.80;;;;;;6189790;23;20431;-91
2021/09/08 08:20:10;;;;;;;2.65;2.30;;;19.50;45.80;;;;;;6215883;23;20000;-92
2021/09/08 08:22:38;;;;;;;4.40;3.17;;;19.60;45.90;;;;;;6219928;23;20057;-94
2021/09/08 08:25:05;;;;;;;3.85;3.30;;;19.70;45.90;;;;;;6197691;23;19997;-94
2021/09/08 08:27:31;;;;;;;3.65;2.60;;;19.80;45.30;;;;;;6194235;23;20011;-93
2021/09/08 08:29:56;;;;;;;3.20;2.60;;;19.90;45.40;;;;;;6194110;23;20005;-93
2021/09/08 08:32:24;;;;;;;2.97;2.45;;;20.00;45.00;;;;;;6191898;23;20044;-92
2021/09/08 08:34:51;;;;;;;3.53;2.67;;;20.10;44.40;;;;;;6191285;23;20067;-90
2021/09/08 08:37:17;;;;;;;3.50;2.30;;;20.10;44.00;;;;;;6189584;23;20087;-91
2021/09/08 08:39:43;;;;;;;2.65;2.33;;;20.20;44.00;;;;;;6195292;23;20451;-91
2021/09/08 08:42:22;;;;;;;3.35;2.45;;;20.20;44.10;;;;;;6206381;22;19993;-91
2021/09/08 08:44:54;;;;;;;2.80;2.50;;;20.10;43.50;;;;;;6214731;22;20013;-91
2021/09/08 08:47:21;;;;;;;4.22;2.10;;;20.10;43.50;;;;;;6234773;23;20007;-91
2021/09/08 08:49:54;;;;;;;3.25;2.55;;;20.10;43.60;;;;;;6225251;23;20023;-91
2021/09/08 08:52:20;;;;;;;2.40;2.05;;;20.10;43.80;;;;;;6194641;23;20004;-94
2021/09/08 08:54:46;;;;;;;2.80;2.45;;;20.10;44.10;;;;;;6197736;23;20040;-94
2021/09/08 08:57:15;;;;;;;2.30;1.65;;;20.20;44.40;;;;;;6222570;23;20005;-92
2021/09/08 08:59:43;;;;;;;2.97;2.28;;;20.40;43.80;;;;;;6194890;23;20012;-93
2021/09/08 09:02:29;;;;;;;2.65;2.45;;;20.50;43.60;;;;;;6217711;23;20012;-93
2021/09/08 09:05:00;;;;;;;2.50;2.17;;;20.50;43.00;;;;;;6190219;23;20055;-95
2021/09/08 09:07:27;;;;;;;2.90;2.35;;;20.50;43.80;;;;;;6192708;23;20005;-93
2021/09/08 09:10:06;;;;;;;4.68;2.85;;;20.60;43.60;;;;;;6192463;23;20004;-94
2021/09/08 09:12:44;;;;;;;3.53;2.78;;;20.50;43.00;;;;;;6190133;23;20005;-94
2021/09/08 09:15:13;;;;;;;4.88;2.70;;;20.50;43.20;;;;;;6216919;23;20001;-92
2021/09/08 09:17:40;;;;;;;6.38;2.28;;;20.50;43.30;;;;;;6191539;23;20037;-92
2021/09/08 09:20:14;;;;;;;2.95;2.33;;;20.50;43.60;;;;;;6221645;23;20001;-92
2021/09/08 09:22:44;;;;;;;3.17;2.33;;;20.60;43.70;;;;;;6202996;23;20011;-95
2021/09/08 09:25:18;;;;;;;3.00;2.55;;;20.60;43.70;;;;;;6203707;23;20000;-94
2021/09/08 09:27:49;;;;;;;2.35;1.90;;;20.70;43.80;;;;;;6202218;23;20008;-93
2021/09/08 09:30:19;;;;;;;3.65;2.50;;;20.80;43.50;;;;;;6200131;23;20016;-96
2021/09/08 09:32:47;;;;;;;3.90;2.30;;;20.90;43.60;;;;;;6225584;23;20066;-96
2021/09/08 09:35:20;;;;;;;3.90;2.80;;;20.90;43.20;;;;;;6193560;23;20038;-95
2021/09/08 09:37:49;;;;;;;4.15;2.63;;;20.90;43.00;;;;;;6194780;23;20004;-95
2021/09/08 09:40:18;;;;;;;5.13;3.00;;;20.90;43.00;;;;;;6195677;23;20012;-96
2021/09/08 09:42:45;;;;;;;4.25;2.80;;;20.90;42.70;;;;;;6199406;23;20012;-92
2021/09/08 09:45:13;;;;;;;2.97;2.28;;;20.90;42.80;;;;;;6195688;22;20017;-94
2021/09/08 09:47:41;;;;;;;2.70;2.15;;;20.80;42.90;;;;;;6223927;23;20115;-94
2021/09/08 09:50:10;;;;;;;3.50;2.38;;;20.80;43.10;;;;;;6173718;23;20009;-94
2021/09/08 09:52:37;;;;;;;3.38;2.20;;;20.90;43.20;;;;;;6229735;23;20036;-91
2021/09/08 09:55:05;;;;;;;4.10;2.60;;;21.00;43.20;;;;;;6206344;23;20020;-93
2021/09/08 09:57:37;;;;;;;3.00;2.40;;;21.10;42.60;;;;;;6207423;23;20001;-92
2021/09/08 10:00:05;;;;;;;2.63;2.17;;;21.10;42.70;;;;;;6221474;23;20012;-93
2021/09/08 10:02:47;;;;;;;2.50;2.30;;;21.20;43.50;;;;;;6197794;23;20013;-96
2021/09/08 10:05:39;;;;;;;3.03;2.47;;;21.30;42.40;;;;;;6195999;23;20020;-93
2021/09/08 10:08:15;;;;;;;3.58;2.70;;;21.20;41.50;;;;;;6195474;23;20013;-94
2021/09/08 10:10:43;;;;;;;3.97;2.72;;;21.20;42.20;;;;;;6186628;23;20084;-94
2021/09/08 10:13:26;;;;;;;3.53;2.53;;;21.20;42.90;;;;;;6192935;23;20488;-96
2021/09/08 10:15:53;;;;;;;3.55;2.38;;;21.30;42.60;;;;;;6191675;23;20005;-95
2021/09/08 10:18:26;;;;;;;3.03;2.45;;;21.40;42.60;;;;;;6187708;23;20433;-95
2021/09/08 10:21:00;;;;;;;3.90;2.92;;;21.40;42.70;;;;;;6191683;23;20009;-95
2021/09/08 10:23:32;;;;;;;3.00;2.70;;;21.40;42.30;;;;;;6189277;23;20029;-95
2021/09/08 10:26:17;;;;;;;3.00;2.40;;;21.40;42.40;;;;;;6196140;23;20005;-96
2021/09/08 10:28:46;;;;;;;5.40;2.40;;;21.40;42.60;;;;;;6192380;23;20064;-96
2021/09/08 10:31:23;;;;;;;3.38;2.38;;;21.40;42.60;;;;;;6191303;23;20024;-95
2021/09/08 10:34:14;;;;;;;3.03;2.08;;;21.40;42.70;;;;;;6193598;23;20071;-96
2021/09/08 10:36:43;;;;;;;3.67;2.47;;;21.50;42.70;;;;;;6191542;23;20028;-96
2021/09/08 10:39:31;;;;;;;3.92;2.83;;;21.60;42.80;;;;;;6195468;23;20020;-92
2021/09/08 10:42:01;;;;;;;2.97;2.67;;;21.70;42.60;;;;;;6199125;23;19993;-96
2021/09/08 10:44:52;;;;;;;3.47;3.00;;;21.80;42.00;;;;;;6198899;23;20036;-96
2021/09/08 10:47:55;;;;;;;4.35;3.17;;;21.70;41.20;;;;;;6199438;23;20005;-93
2021/09/08 10:50:51;;;;;;;4.03;2.92;;;21.60;41.40;;;;;;6199123;23;19997;-92
2021/09/08 10:53:32;;;;;;;6.28;2.70;;;21.60;42.10;;;;;;6203316;23;20013;-92
2021/09/08 10:56:11;;;;;;;2.65;2.42;;;21.70;41.80;;;;;;6203911;23;20025;-96
2021/09/08 10:59:04;;;;;;;4.00;2.45;;;21.70;41.90;;;;;;6202307;23;20005;-91
2021/09/08 11:01:40;;;;;;;2.95;2.65;;;21.70;42.10;;;;;;6203783;23;20020;-95
2021/09/08 11:04:49;;;;;;;2.58;2.38;;;21.80;42.10;;;;;;6220876;23;20024;-92
2021/09/08 11:07:27;;;;;;;;;;;;;;;;;;;;;
2021/09/08 11:10:40;;;;;;;3.13;2.80;;;22.10;42.00;;;;;;6237205;23;20007;-93
2021/09/08 11:14:15;;;;;;;3.80;2.80;;;22.20;41.60;;;;;;6031832;23;20531;-96
2021/09/08 11:17:25;;;;;;;2.60;2.10;;;22.20;40.70;;;;;;6123801;23;20052;-96
2021/09/08 11:20:08;;;;;;;3.15;2.60;;;22.20;40.90;;;;;;6204571;23;20016;-92
2021/09/08 11:23:09;;;;;;;4.30;2.90;;;22.20;41.90;;;;;;6201350;23;20012;-95
2021/09/08 11:25:40;;;;;;;3.42;2.70;;;22.10;43.50;;;;;;6056331;23;20034;-91
2021/09/08 11:28:42;;;;;;;;;;;;;;;;;;;;;
2021/09/08 11:31:20;;;;;;;4.97;4.03;;;22.20;45.20;;;;;;6209978;23;20420;-94
2021/09/08 11:33:47;;;;;;;5.22;3.33;;;22.10;46.10;;;;;;6217919;23;20012;-92
2021/09/08 11:36:18;;;;;;;4.68;3.05;;;22.00;45.40;;;;;;6225072;23;20473;-91
2021/09/08 11:39:22;;;;;;;5.63;3.10;;;21.90;45.60;;;;;;6198483;23;20377;-93
2021/09/08 11:42:03;;;;;;;4.55;2.80;;;21.90;45.90;;;;;;6113235;23;20428;-95
2021/09/08 11:44:30;;;;;;;2.40;2.20;;;21.90;46.10;;;;;;6217141;23;20000;-91
2021/09/08 11:46:57;;;;;;;3.75;2.63;;;22.00;46.10;;;;;;6188817;23;20068;-88
2021/09/08 11:49:30;;;;;;;3.22;2.90;;;22.00;46.10;;;;;;6212693;23;20001;-89
2021/09/08 11:52:29;;;;;;;3.05;2.75;;;22.00;46.30;;;;;;6223878;23;19996;-90
2021/09/08 11:54:58;;;;;;;3.97;3.05;;;22.00;46.20;;;;;;6044497;23;20011;-89
2021/09/08 11:57:27;;;;;;;4.50;2.42;;;22.00;45.80;;;;;;6038931;23;20009;-89
2021/09/08 11:59:53;;;;;;;2.75;2.17;;;22.00;46.00;;;;;;6187002;23;20040;-91
2021/09/08 12:02:22;;;;;;;7.05;2.55;;;22.10;45.80;;;;;;6166275;23;20104;-89
2021/09/08 12:04:48;;;;;;;4.40;2.65;;;22.10;45.50;;;;;;6192654;23;20028;-91
2021/09/08 12:07:13;;;;;;;3.38;2.55;;;22.10;45.40;;;;;;6216793;23;20080;-90
2021/09/08 12:09:43;;;;;;;3.55;2.85;;;22.10;45.60;;;;;;6217946;23;20344;-89
2021/09/08 12:12:11;;;;;;;2.50;2.30;;;22.10;45.80;;;;;;6189034;23;20028;-89
2021/09/08 12:14:40;;;;;;;2.97;2.25;;;22.20;45.60;;;;;;6190160;23;20011;-94
2021/09/08 12:17:24;;;;;;;2.50;2.30;;;22.20;45.20;;;;;;6193556;23;20353;-92
2021/09/08 12:20:11;;;;;;;2.80;2.47;;;22.30;45.00;;;;;;6215123;23;19997;-92
2021/09/08 12:22:43;;;;;;;3.03;2.72;;;22.30;44.20;;;;;;6193873;23;20058;-91
2021/09/08 12:25:22;;;;;;;4.28;2.88;;;22.30;44.50;;;;;;6196978;23;20012;-91
2021/09/08 12:27:53;;;;;;;3.83;2.60;;;22.30;44.60;;;;;;6174111;23;20068;-94
2021/09/08 12:30:18;;;;;;;5.60;2.65;;;22.50;44.90;;;;;;6217954;23;19999;-91
2021/09/08 12:33:04;;;;;;;6.43;3.10;;;22.60;44.60;;;;;;6192158;23;20013;-92
2021/09/08 12:35:47;;;;;;;3.40;2.60;;;22.60;44.40;;;;;;6219792;23;20004;-93
2021/09/08 12:38:38;;;;;;;3.17;2.40;;;22.70;44.40;;;;;;6219010;23;20004;-93
2021/09/08 12:41:24;;;;;;;4.18;2.47;;;22.80;44.00;;;;;;6219719;23;20009;-91
2021/09/08 12:43:53;;;;;;;4.43;3.00;;;23.00;42.80;;;;;;6217124;23;20065;-92
2021/09/08 12:46:39;;;;;;;3.75;2.65;;;23.20;43.10;;;;;;6221579;23;20404;-91
2021/09/08 12:49:06;;;;;;;3.33;2.55;;;23.50;42.20;;;;;;6227714;23;20056;-93
2021/09/08 12:51:38;;;;;;;3.33;2.55;;;23.60;42.00;;;;;;6227378;23;20158;-93
2021/09/08 12:54:05;;;;;;;3.83;2.75;;;23.90;41.60;;;;;;6175226;23;20020;-94
2021/09/08 12:56:32;;;;;;;2.38;2.17;;;24.10;42.20;;;;;;6221319;23;20001;-95
2021/09/08 12:58:59;;;;;;;3.58;2.70;;;24.40;42.60;;;;;;6193734;23;20000;-93
2021/09/08 13:01:26;;;;;;;3.40;2.58;;;24.80;42.90;;;;;;6193235;23;20059;-95